Ojuelas, Texas
Current Conditions -  °F | °C
As of 7:55 AM on Friday 24 Oct 2014 (Local Time) from KHBV Reporting Station
Haze Haze  
Wind Chill: 61°   Ceiling: Unl
Heat Index: 61°   Visibility: 2.5mi
Dew Point: 60°   Wind: 0mph
Humidity: 94%   Direction: NA
Pressure: 30.13"   Gusts: NA
Location:  27.4459°N, 99.0184°W
Report Text: KHBV 241255Z AUTO 00000KT 2 1/2SM BR CLR 16/15 A3013 RMK AO2 T01620153
Loading
Personal Weather Stations






























Interactive Weather Map
Tropical Storm Tracking
New forecast layout! Learn more

10-Day Weather Forecast

Advertisements
Track Severe Weather on mobile